Branson West Airport


Codes: FWB/
Name: Branson West Airport
City: Branson West
Country: United States
Elevation: 1348 ft.

Photos at Branson West Airport


   Photos courtesy of SpottingLog. You can add your own sightings and photos by signing up for a free trial today.



No photos found.

Weather at Branson West Airport


Time (UTC)DescriptionTempratureWindCloud coverageVisibilityPressureHumidity
15-Apr-2024 18:00Scattered Clouds23°C9 mph, SE33%10000m1013hPa70%
15-Apr-2024 21:00Broken Clouds26°C11 mph, S67%10000m1011hPa57%
16-Apr-2024 00:00Overcast Clouds22°C9 mph, S100%10000m1010hPa68%
16-Apr-2024 03:00Overcast Clouds22°C13 mph, S100%10000m1008hPa58%
16-Apr-2024 06:00Overcast Clouds22°C11 mph, S100%10000m1008hPa70%
16-Apr-2024 09:00Broken Clouds19°C4 mph, SE77%10000m1006hPa84%
16-Apr-2024 12:00Broken Clouds19°C11 mph, S72%10000m1007hPa79%
16-Apr-2024 15:00Light Rain20°C16 mph, S53%10000m1005hPa79%
16-Apr-2024 18:00Light Rain19°C13 mph, S77%10000m1005hPa82%
16-Apr-2024 21:00Light Rain25°C16 mph, SW80%10000m1003hPa54%
17-Apr-2024 00:00Scattered Clouds23°C11 mph, SW42%10000m1004hPa45%
17-Apr-2024 03:00Clear Sky19°C11 mph, SW0%10000m1005hPa40%
17-Apr-2024 06:00Clear Sky21°C16 mph, SW0%10000m1004hPa40%
17-Apr-2024 09:00Clear Sky17°C11 mph, W0%10000m1007hPa55%
17-Apr-2024 12:00Clear Sky14°C9 mph, W0%10000m1009hPa67%
17-Apr-2024 15:00Clear Sky18°C13 mph, W0%10000m1011hPa54%
17-Apr-2024 18:00Clear Sky22°C11 mph, NW0%10000m1012hPa44%
17-Apr-2024 21:00Clear Sky23°C9 mph, NW0%10000m1011hPa42%
18-Apr-2024 00:00Clear Sky20°C4 mph, NW0%10000m1013hPa64%
18-Apr-2024 03:00Clear Sky15°C2 mph, N0%10000m1015hPa81%
18-Apr-2024 06:00Clear Sky13°C2 mph, NE0%10000m1015hPa89%
18-Apr-2024 09:00Clear Sky12°C4 mph, E0%10000m1015hPa94%
18-Apr-2024 12:00Clear Sky12°C7 mph, E3%10000m1015hPa89%
18-Apr-2024 15:00Light Rain20°C9 mph, SE72%10000m1014hPa66%
18-Apr-2024 18:00Light Rain24°C7 mph, SE68%10000m1012hPa71%
18-Apr-2024 21:00Light Rain27°C7 mph, SW95%10000m1009hPa60%
19-Apr-2024 00:00Heavy Intensity Rain14°C9 mph, E91%8657m1011hPa97%
19-Apr-2024 03:00Moderate Rain13°C13 mph, N88%10000m1015hPa96%
19-Apr-2024 06:00Light Rain10°C9 mph, N91%10000m1017hPa95%
19-Apr-2024 09:00Overcast Clouds10°C9 mph, N100%10000m1018hPa94%
19-Apr-2024 12:00Overcast Clouds9°C9 mph, N100%10000m1020hPa90%
19-Apr-2024 15:00Overcast Clouds12°C9 mph, NE96%10000m1022hPa63%
19-Apr-2024 18:00Overcast Clouds17°C11 mph, NE92%10000m1021hPa49%
19-Apr-2024 21:00Broken Clouds18°C9 mph, NE61%10000m1019hPa44%
20-Apr-2024 00:00Broken Clouds14°C9 mph, NE75%10000m1020hPa57%
20-Apr-2024 03:00Overcast Clouds10°C7 mph, NE100%10000m1023hPa61%
20-Apr-2024 06:00Overcast Clouds7°C4 mph, NE99%10000m1024hPa69%
20-Apr-2024 09:00Broken Clouds8°C4 mph, NE74%10000m1025hPa63%
20-Apr-2024 12:00Overcast Clouds8°C4 mph, NE87%10000m1025hPa62%
20-Apr-2024 15:00Overcast Clouds10°C7 mph, NE100%10000m1026hPa51%